sensor_id;sensor_type;location;lat;lon;timestamp;P1;durP1;ratioP1;P2;durP2;ratioP2
33094;SDS011;19459;53.044;8.910;2024-02-23T00:02:04;2.83;;;0.82;;
33094;SDS011;19459;53.044;8.910;2024-02-23T00:04:30;8.82;;;0.90;;
33094;SDS011;19459;53.044;8.910;2024-02-23T00:06:56;2.85;;;1.33;;
33094;SDS011;19459;53.044;8.910;2024-02-23T00:09:22;2.70;;;0.70;;
33094;SDS011;19459;53.044;8.910;2024-02-23T00:11:49;2.63;;;0.85;;
33094;SDS011;19459;53.044;8.910;2024-02-23T00:14:15;1.38;;;0.60;;
33094;SDS011;19459;53.044;8.910;2024-02-23T00:16:45;5.45;;;0.98;;
33094;SDS011;19459;53.044;8.910;2024-02-23T00:19:11;5.38;;;1.00;;
33094;SDS011;19459;53.044;8.910;2024-02-23T00:21:37;6.28;;;0.98;;
33094;SDS011;19459;53.044;8.910;2024-02-23T00:24:04;4.40;;;0.40;;
33094;SDS011;19459;53.044;8.910;2024-02-23T00:26:30;0.68;;;0.40;;
33094;SDS011;19459;53.044;8.910;2024-02-23T00:28:56;2.03;;;1.05;;
33094;SDS011;19459;53.044;8.910;2024-02-23T00:31:22;0.55;;;0.40;;
33094;SDS011;19459;53.044;8.910;2024-02-23T00:33:48;0.77;;;0.60;;
33094;SDS011;19459;53.044;8.910;2024-02-23T00:36:13;1.42;;;0.52;;
33094;SDS011;19459;53.044;8.910;2024-02-23T00:38:39;0.82;;;0.52;;
33094;SDS011;19459;53.044;8.910;2024-02-23T00:41:05;2.63;;;0.80;;
33094;SDS011;19459;53.044;8.910;2024-02-23T00:43:40;0.70;;;0.60;;
33094;SDS011;19459;53.044;8.910;2024-02-23T00:46:07;0.60;;;0.52;;
33094;SDS011;19459;53.044;8.910;2024-02-23T00:48:33;1.98;;;0.80;;
33094;SDS011;19459;53.044;8.910;2024-02-23T00:51:00;0.80;;;0.70;;
33094;SDS011;19459;53.044;8.910;2024-02-23T00:53:28;0.73;;;0.73;;
33094;SDS011;19459;53.044;8.910;2024-02-23T00:55:55;5.53;;;1.48;;
33094;SDS011;19459;53.044;8.910;2024-02-23T00:58:21;0.50;;;0.50;;
33094;SDS011;19459;53.044;8.910;2024-02-23T01:00:47;4.03;;;0.60;;
33094;SDS011;19459;53.044;8.910;2024-02-23T01:03:12;1.38;;;0.60;;
33094;SDS011;19459;53.044;8.910;2024-02-23T01:05:38;0.60;;;0.60;;
33094;SDS011;19459;53.044;8.910;2024-02-23T01:08:04;0.52;;;0.52;;
33094;SDS011;19459;53.044;8.910;2024-02-23T01:10:31;0.93;;;0.60;;
33094;SDS011;19459;53.044;8.910;2024-02-23T01:12:57;2.35;;;0.73;;
33094;SDS011;19459;53.044;8.910;2024-02-23T01:15:22;0.50;;;0.50;;
33094;SDS011;19459;53.044;8.910;2024-02-23T01:17:48;1.75;;;0.47;;
33094;SDS011;19459;53.044;8.910;2024-02-23T01:20:14;1.55;;;0.30;;
33094;SDS011;19459;53.044;8.910;2024-02-23T01:22:40;1.42;;;0.32;;
33094;SDS011;19459;53.044;8.910;2024-02-23T01:25:06;1.15;;;0.30;;
33094;SDS011;19459;53.044;8.910;2024-02-23T01:27:31;0.40;;;0.20;;
33094;SDS011;19459;53.044;8.910;2024-02-23T01:29:57;0.25;;;0.20;;
33094;SDS011;19459;53.044;8.910;2024-02-23T01:32:23;0.95;;;0.20;;
33094;SDS011;19459;53.044;8.910;2024-02-23T01:34:49;0.40;;;0.20;;
33094;SDS011;19459;53.044;8.910;2024-02-23T01:37:14;1.67;;;0.22;;
33094;SDS011;19459;53.044;8.910;2024-02-23T01:39:40;0.32;;;0.20;;
33094;SDS011;19459;53.044;8.910;2024-02-23T01:42:06;1.38;;;0.20;;
33094;SDS011;19459;53.044;8.910;2024-02-23T01:44:33;0.63;;;0.20;;
33094;SDS011;19459;53.044;8.910;2024-02-23T01:46:58;0.20;;;0.20;;
33094;SDS011;19459;53.044;8.910;2024-02-23T01:49:24;0.40;;;0.28;;
33094;SDS011;19459;53.044;8.910;2024-02-23T01:51:55;1.85;;;0.30;;
33094;SDS011;19459;53.044;8.910;2024-02-23T01:54:22;0.20;;;0.20;;
33094;SDS011;19459;53.044;8.910;2024-02-23T01:56:49;0.43;;;0.20;;
33094;SDS011;19459;53.044;8.910;2024-02-23T01:59:16;0.38;;;0.20;;
33094;SDS011;19459;53.044;8.910;2024-02-23T02:01:46;1.38;;;0.20;;
33094;SDS011;19459;53.044;8.910;2024-02-23T02:04:12;0.25;;;0.25;;
33094;SDS011;19459;53.044;8.910;2024-02-23T02:06:38;0.68;;;0.30;;
33094;SDS011;19459;53.044;8.910;2024-02-23T02:09:04;0.45;;;0.20;;
33094;SDS011;19459;53.044;8.910;2024-02-23T02:11:30;0.20;;;0.20;;
33094;SDS011;19459;53.044;8.910;2024-02-23T02:13:56;0.20;;;0.20;;
33094;SDS011;19459;53.044;8.910;2024-02-23T02:16:22;0.32;;;0.32;;
33094;SDS011;19459;53.044;8.910;2024-02-23T02:18:48;0.20;;;0.20;;
33094;SDS011;19459;53.044;8.910;2024-02-23T02:21:13;0.20;;;0.20;;
33094;SDS011;19459;53.044;8.910;2024-02-23T02:23:39;0.20;;;0.20;;
33094;SDS011;19459;53.044;8.910;2024-02-23T02:26:05;0.15;;;0.15;;
33094;SDS011;19459;53.044;8.910;2024-02-23T02:28:31;0.95;;;0.55;;
33094;SDS011;19459;53.044;8.910;2024-02-23T02:30:57;0.32;;;0.32;;
33094;SDS011;19459;53.044;8.910;2024-02-23T02:33:23;0.40;;;0.40;;
33094;SDS011;19459;53.044;8.910;2024-02-23T02:35:49;0.40;;;0.40;;
33094;SDS011;19459;53.044;8.910;2024-02-23T02:38:15;1.08;;;0.80;;
33094;SDS011;19459;53.044;8.910;2024-02-23T02:40:41;1.80;;;0.90;;
33094;SDS011;19459;53.044;8.910;2024-02-23T02:43:07;0.70;;;0.70;;
33094;SDS011;19459;53.044;8.910;2024-02-23T02:45:33;1.05;;;0.95;;
33094;SDS011;19459;53.044;8.910;2024-02-23T02:48:00;0.60;;;0.60;;
33094;SDS011;19459;53.044;8.910;2024-02-23T02:50:28;2.13;;;1.30;;
33094;SDS011;19459;53.044;8.910;2024-02-23T02:52:54;1.13;;;1.00;;
33094;SDS011;19459;53.044;8.910;2024-02-23T02:55:20;3.58;;;1.27;;
33094;SDS011;19459;53.044;8.910;2024-02-23T02:57:46;0.75;;;0.75;;
33094;SDS011;19459;53.044;8.910;2024-02-23T03:00:12;0.90;;;0.90;;
33094;SDS011;19459;53.044;8.910;2024-02-23T03:02:38;0.77;;;0.77;;
33094;SDS011;19459;53.044;8.910;2024-02-23T03:05:04;1.95;;;0.90;;
33094;SDS011;19459;53.044;8.910;2024-02-23T03:07:30;0.90;;;0.90;;
33094;SDS011;19459;53.044;8.910;2024-02-23T03:09:56;1.08;;;0.98;;
33094;SDS011;19459;53.044;8.910;2024-02-23T03:12:22;1.35;;;0.73;;
33094;SDS011;19459;53.044;8.910;2024-02-23T03:14:47;1.40;;;0.60;;
33094;SDS011;19459;53.044;8.910;2024-02-23T03:17:13;1.35;;;0.70;;
33094;SDS011;19459;53.044;8.910;2024-02-23T03:19:39;0.82;;;0.82;;
33094;SDS011;19459;53.044;8.910;2024-02-23T03:22:05;1.52;;;0.70;;
33094;SDS011;19459;53.044;8.910;2024-02-23T03:24:31;3.17;;;0.80;;
33094;SDS011;19459;53.044;8.910;2024-02-23T03:26:57;1.58;;;0.60;;
33094;SDS011;19459;53.044;8.910;2024-02-23T03:29:22;2.35;;;1.00;;
33094;SDS011;19459;53.044;8.910;2024-02-23T03:31:49;5.78;;;1.00;;
33094;SDS011;19459;53.044;8.910;2024-02-23T03:34:16;4.57;;;1.65;;
33094;SDS011;19459;53.044;8.910;2024-02-23T03:36:42;3.45;;;1.30;;
33094;SDS011;19459;53.044;8.910;2024-02-23T03:39:08;6.10;;;1.65;;
33094;SDS011;19459;53.044;8.910;2024-02-23T03:41:34;5.32;;;1.77;;
33094;SDS011;19459;53.044;8.910;2024-02-23T03:44:00;3.03;;;1.52;;
33094;SDS011;19459;53.044;8.910;2024-02-23T03:46:25;4.60;;;1.98;;
33094;SDS011;19459;53.044;8.910;2024-02-23T03:48:51;8.10;;;2.30;;
33094;SDS011;19459;53.044;8.910;2024-02-23T03:51:17;8.00;;;2.15;;
33094;SDS011;19459;53.044;8.910;2024-02-23T03:53:43;3.60;;;2.17;;
33094;SDS011;19459;53.044;8.910;2024-02-23T03:56:09;7.88;;;3.08;;
33094;SDS011;19459;53.044;8.910;2024-02-23T03:58:34;11.35;;;3.47;;
33094;SDS011;19459;53.044;8.910;2024-02-23T04:01:00;8.52;;;2.85;;
33094;SDS011;19459;53.044;8.910;2024-02-23T04:03:26;7.85;;;2.90;;
33094;SDS011;19459;53.044;8.910;2024-02-23T04:05:52;8.90;;;2.80;;
33094;SDS011;19459;53.044;8.910;2024-02-23T04:08:17;10.73;;;3.80;;
33094;SDS011;19459;53.044;8.910;2024-02-23T04:10:43;7.55;;;3.22;;
33094;SDS011;19459;53.044;8.910;2024-02-23T04:13:09;7.75;;;2.38;;
33094;SDS011;19459;53.044;8.910;2024-02-23T04:15:38;7.57;;;2.72;;
33094;SDS011;19459;53.044;8.910;2024-02-23T04:18:05;5.38;;;2.78;;
33094;SDS011;19459;53.044;8.910;2024-02-23T04:20:31;8.30;;;2.72;;
33094;SDS011;19459;53.044;8.910;2024-02-23T04:22:58;9.52;;;2.42;;
33094;SDS011;19459;53.044;8.910;2024-02-23T04:25:24;6.68;;;2.47;;
33094;SDS011;19459;53.044;8.910;2024-02-23T04:27:49;13.55;;;2.60;;
33094;SDS011;19459;53.044;8.910;2024-02-23T04:30:15;3.05;;;2.20;;
33094;SDS011;19459;53.044;8.910;2024-02-23T04:32:41;4.13;;;2.20;;
33094;SDS011;19459;53.044;8.910;2024-02-23T04:35:07;2.10;;;1.70;;
33094;SDS011;19459;53.044;8.910;2024-02-23T04:37:33;5.05;;;1.55;;
33094;SDS011;19459;53.044;8.910;2024-02-23T04:39:59;3.70;;;1.85;;
33094;SDS011;19459;53.044;8.910;2024-02-23T04:42:25;3.53;;;1.85;;
33094;SDS011;19459;53.044;8.910;2024-02-23T04:44:51;4.47;;;2.08;;
33094;SDS011;19459;53.044;8.910;2024-02-23T04:47:19;5.47;;;1.63;;
33094;SDS011;19459;53.044;8.910;2024-02-23T04:49:45;3.40;;;1.02;;
33094;SDS011;19459;53.044;8.910;2024-02-23T04:52:11;3.50;;;1.50;;
33094;SDS011;19459;53.044;8.910;2024-02-23T04:54:37;4.38;;;1.45;;
33094;SDS011;19459;53.044;8.910;2024-02-23T04:57:03;4.07;;;0.98;;
33094;SDS011;19459;53.044;8.910;2024-02-23T04:59:30;1.70;;;0.90;;
33094;SDS011;19459;53.044;8.910;2024-02-23T05:01:57;5.50;;;1.52;;
33094;SDS011;19459;53.044;8.910;2024-02-23T05:04:23;1.58;;;0.93;;
33094;SDS011;19459;53.044;8.910;2024-02-23T05:06:51;1.75;;;0.90;;
33094;SDS011;19459;53.044;8.910;2024-02-23T05:09:17;1.55;;;0.80;;
33094;SDS011;19459;53.044;8.910;2024-02-23T05:11:43;0.90;;;0.70;;
33094;SDS011;19459;53.044;8.910;2024-02-23T05:14:10;0.75;;;0.50;;
33094;SDS011;19459;53.044;8.910;2024-02-23T05:16:36;5.47;;;1.30;;
33094;SDS011;19459;53.044;8.910;2024-02-23T05:19:02;2.60;;;0.63;;
33094;SDS011;19459;53.044;8.910;2024-02-23T05:21:28;2.10;;;1.05;;
33094;SDS011;19459;53.044;8.910;2024-02-23T05:23:54;3.08;;;1.40;;
33094;SDS011;19459;53.044;8.910;2024-02-23T05:26:20;2.15;;;1.10;;
33094;SDS011;19459;53.044;8.910;2024-02-23T05:28:45;3.67;;;1.55;;
33094;SDS011;19459;53.044;8.910;2024-02-23T05:31:11;4.82;;;2.85;;
33094;SDS011;19459;53.044;8.910;2024-02-23T05:33:37;3.25;;;1.83;;
33094;SDS011;19459;53.044;8.910;2024-02-23T05:36:04;4.72;;;2.33;;
33094;SDS011;19459;53.044;8.910;2024-02-23T05:38:30;7.40;;;2.47;;
33094;SDS011;19459;53.044;8.910;2024-02-23T05:40:56;7.80;;;2.42;;
33094;SDS011;19459;53.044;8.910;2024-02-23T05:43:22;6.28;;;2.67;;
33094;SDS011;19459;53.044;8.910;2024-02-23T05:45:47;8.07;;;3.40;;
33094;SDS011;19459;53.044;8.910;2024-02-23T05:48:14;5.40;;;3.22;;
33094;SDS011;19459;53.044;8.910;2024-02-23T05:50:40;6.65;;;2.95;;
33094;SDS011;19459;53.044;8.910;2024-02-23T05:53:06;9.23;;;2.75;;
33094;SDS011;19459;53.044;8.910;2024-02-23T05:55:31;9.82;;;3.47;;
33094;SDS011;19459;53.044;8.910;2024-02-23T05:57:57;9.55;;;3.20;;
33094;SDS011;19459;53.044;8.910;2024-02-23T06:00:23;9.40;;;2.97;;
33094;SDS011;19459;53.044;8.910;2024-02-23T06:02:50;9.60;;;3.95;;
33094;SDS011;19459;53.044;8.910;2024-02-23T06:05:15;14.27;;;3.50;;
33094;SDS011;19459;53.044;8.910;2024-02-23T06:07:41;7.72;;;3.10;;
33094;SDS011;19459;53.044;8.910;2024-02-23T06:10:07;4.68;;;3.20;;
33094;SDS011;19459;53.044;8.910;2024-02-23T06:12:33;8.75;;;2.95;;
33094;SDS011;19459;53.044;8.910;2024-02-23T06:14:59;6.60;;;2.72;;
33094;SDS011;19459;53.044;8.910;2024-02-23T06:17:24;5.95;;;2.97;;
33094;SDS011;19459;53.044;8.910;2024-02-23T06:19:50;5.20;;;2.90;;
33094;SDS011;19459;53.044;8.910;2024-02-23T06:22:18;7.03;;;3.03;;
33094;SDS011;19459;53.044;8.910;2024-02-23T06:24:46;12.20;;;2.85;;
33094;SDS011;19459;53.044;8.910;2024-02-23T06:27:12;5.97;;;2.75;;
33094;SDS011;19459;53.044;8.910;2024-02-23T06:29:38;5.35;;;2.45;;
33094;SDS011;19459;53.044;8.910;2024-02-23T06:32:04;6.82;;;2.65;;
33094;SDS011;19459;53.044;8.910;2024-02-23T06:34:30;13.38;;;3.30;;
33094;SDS011;19459;53.044;8.910;2024-02-23T06:36:56;9.30;;;3.42;;
33094;SDS011;19459;53.044;8.910;2024-02-23T06:39:22;11.63;;;3.03;;
33094;SDS011;19459;53.044;8.910;2024-02-23T06:41:48;15.38;;;3.45;;
33094;SDS011;19459;53.044;8.910;2024-02-23T06:44:14;5.85;;;2.20;;
33094;SDS011;19459;53.044;8.910;2024-02-23T06:46:40;7.35;;;2.33;;
33094;SDS011;19459;53.044;8.910;2024-02-23T06:49:06;9.80;;;2.20;;
33094;SDS011;19459;53.044;8.910;2024-02-23T06:51:33;3.75;;;2.63;;
33094;SDS011;19459;53.044;8.910;2024-02-23T06:53:58;8.43;;;2.53;;
33094;SDS011;19459;53.044;8.910;2024-02-23T06:56:24;7.90;;;2.35;;
33094;SDS011;19459;53.044;8.910;2024-02-23T06:58:50;6.55;;;2.42;;
33094;SDS011;19459;53.044;8.910;2024-02-23T07:01:16;9.98;;;2.38;;
33094;SDS011;19459;53.044;8.910;2024-02-23T07:03:41;10.98;;;2.60;;
33094;SDS011;19459;53.044;8.910;2024-02-23T07:06:09;5.80;;;2.45;;
33094;SDS011;19459;53.044;8.910;2024-02-23T07:08:37;10.27;;;2.53;;
33094;SDS011;19459;53.044;8.910;2024-02-23T07:11:03;5.75;;;2.30;;
33094;SDS011;19459;53.044;8.910;2024-02-23T07:13:29;7.22;;;2.72;;
33094;SDS011;19459;53.044;8.910;2024-02-23T07:15:55;8.50;;;2.55;;
33094;SDS011;19459;53.044;8.910;2024-02-23T07:18:21;8.95;;;2.40;;
33094;SDS011;19459;53.044;8.910;2024-02-23T07:20:47;16.30;;;3.83;;
33094;SDS011;19459;53.044;8.910;2024-02-23T07:23:13;7.57;;;2.40;;
33094;SDS011;19459;53.044;8.910;2024-02-23T07:25:41;5.93;;;2.25;;
33094;SDS011;19459;53.044;8.910;2024-02-23T07:28:07;7.55;;;2.53;;
33094;SDS011;19459;53.044;8.910;2024-02-23T07:30:33;8.93;;;2.55;;
33094;SDS011;19459;53.044;8.910;2024-02-23T07:33:00;7.45;;;2.70;;
33094;SDS011;19459;53.044;8.910;2024-02-23T07:35:26;11.27;;;2.50;;
33094;SDS011;19459;53.044;8.910;2024-02-23T07:37:52;9.55;;;2.50;;
33094;SDS011;19459;53.044;8.910;2024-02-23T07:40:20;15.48;;;2.97;;
33094;SDS011;19459;53.044;8.910;2024-02-23T07:42:46;7.50;;;3.35;;
33094;SDS011;19459;53.044;8.910;2024-02-23T07:45:12;8.38;;;2.88;;
33094;SDS011;19459;53.044;8.910;2024-02-23T07:47:38;14.80;;;3.03;;
33094;SDS011;19459;53.044;8.910;2024-02-23T07:50:04;9.32;;;2.40;;
33094;SDS011;19459;53.044;8.910;2024-02-23T07:52:30;10.57;;;2.40;;
33094;SDS011;19459;53.044;8.910;2024-02-23T07:54:56;11.05;;;2.22;;
33094;SDS011;19459;53.044;8.910;2024-02-23T07:57:21;9.23;;;2.78;;
33094;SDS011;19459;53.044;8.910;2024-02-23T07:59:48;6.78;;;2.42;;
33094;SDS011;19459;53.044;8.910;2024-02-23T08:02:17;7.45;;;2.42;;
33094;SDS011;19459;53.044;8.910;2024-02-23T08:04:44;8.02;;;3.13;;
33094;SDS011;19459;53.044;8.910;2024-02-23T08:07:12;6.18;;;2.20;;
33094;SDS011;19459;53.044;8.910;2024-02-23T08:09:38;10.23;;;1.80;;
33094;SDS011;19459;53.044;8.910;2024-02-23T08:12:04;8.43;;;2.22;;
33094;SDS011;19459;53.044;8.910;2024-02-23T08:14:31;8.90;;;2.45;;
33094;SDS011;19459;53.044;8.910;2024-02-23T08:16:57;7.20;;;1.85;;
33094;SDS011;19459;53.044;8.910;2024-02-23T08:19:23;11.13;;;2.78;;
33094;SDS011;19459;53.044;8.910;2024-02-23T08:21:49;11.68;;;2.03;;
33094;SDS011;19459;53.044;8.910;2024-02-23T08:24:15;9.93;;;2.30;;
33094;SDS011;19459;53.044;8.910;2024-02-23T08:26:41;6.18;;;1.55;;
33094;SDS011;19459;53.044;8.910;2024-02-23T08:29:07;6.85;;;1.92;;
33094;SDS011;19459;53.044;8.910;2024-02-23T08:31:33;7.35;;;2.30;;
33094;SDS011;19459;53.044;8.910;2024-02-23T08:33:59;10.75;;;1.98;;
33094;SDS011;19459;53.044;8.910;2024-02-23T08:36:25;11.02;;;2.40;;
33094;SDS011;19459;53.044;8.910;2024-02-23T08:38:51;9.25;;;2.15;;
33094;SDS011;19459;53.044;8.910;2024-02-23T08:41:16;11.35;;;2.15;;
33094;SDS011;19459;53.044;8.910;2024-02-23T08:43:43;11.65;;;2.53;;
33094;SDS011;19459;53.044;8.910;2024-02-23T08:46:08;12.27;;;3.05;;
33094;SDS011;19459;53.044;8.910;2024-02-23T08:48:34;6.10;;;2.63;;
33094;SDS011;19459;53.044;8.910;2024-02-23T08:51:00;11.68;;;2.55;;
33094;SDS011;19459;53.044;8.910;2024-02-23T08:53:25;6.78;;;2.58;;
33094;SDS011;19459;53.044;8.910;2024-02-23T08:55:51;7.68;;;2.50;;
33094;SDS011;19459;53.044;8.910;2024-02-23T08:58:17;7.50;;;1.95;;
33094;SDS011;19459;53.044;8.910;2024-02-23T09:00:43;12.13;;;2.65;;
33094;SDS011;19459;53.044;8.910;2024-02-23T09:03:08;9.05;;;2.30;;
33094;SDS011;19459;53.044;8.910;2024-02-23T09:05:34;9.38;;;2.55;;
33094;SDS011;19459;53.044;8.910;2024-02-23T09:08:00;5.15;;;2.72;;
33094;SDS011;19459;53.044;8.910;2024-02-23T09:10:26;8.93;;;2.30;;
33094;SDS011;19459;53.044;8.910;2024-02-23T09:12:51;9.52;;;2.45;;
33094;SDS011;19459;53.044;8.910;2024-02-23T09:15:17;7.05;;;2.40;;
33094;SDS011;19459;53.044;8.910;2024-02-23T09:17:43;9.55;;;3.00;;
33094;SDS011;19459;53.044;8.910;2024-02-23T09:20:09;12.65;;;2.15;;
33094;SDS011;19459;53.044;8.910;2024-02-23T09:22:36;6.57;;;2.30;;
33094;SDS011;19459;53.044;8.910;2024-02-23T09:25:02;7.70;;;2.75;;
33094;SDS011;19459;53.044;8.910;2024-02-23T09:27:30;8.15;;;2.63;;
33094;SDS011;19459;53.044;8.910;2024-02-23T09:29:55;14.43;;;2.55;;
33094;SDS011;19459;53.044;8.910;2024-02-23T09:32:22;9.40;;;2.05;;
33094;SDS011;19459;53.044;8.910;2024-02-23T09:34:48;5.63;;;1.85;;
33094;SDS011;19459;53.044;8.910;2024-02-23T09:37:14;14.15;;;1.90;;
33094;SDS011;19459;53.044;8.910;2024-02-23T09:39:39;8.43;;;3.58;;
33094;SDS011;19459;53.044;8.910;2024-02-23T09:42:07;6.78;;;1.83;;
33094;SDS011;19459;53.044;8.910;2024-02-23T09:44:38;6.82;;;2.10;;
33094;SDS011;19459;53.044;8.910;2024-02-23T09:47:07;11.70;;;2.03;;
33094;SDS011;19459;53.044;8.910;2024-02-23T09:49:38;9.35;;;2.33;;
33094;SDS011;19459;53.044;8.910;2024-02-23T09:52:07;9.13;;;2.03;;
33094;SDS011;19459;53.044;8.910;2024-02-23T09:54:37;12.82;;;2.15;;
33094;SDS011;19459;53.044;8.910;2024-02-23T09:57:07;4.75;;;1.80;;
33094;SDS011;19459;53.044;8.910;2024-02-23T09:59:37;7.15;;;2.35;;
33094;SDS011;19459;53.044;8.910;2024-02-23T10:02:07;6.10;;;2.60;;
33094;SDS011;19459;53.044;8.910;2024-02-23T10:04:35;9.93;;;1.73;;
33094;SDS011;19459;53.044;8.910;2024-02-23T10:07:01;5.90;;;2.10;;
33094;SDS011;19459;53.044;8.910;2024-02-23T10:09:29;7.03;;;1.95;;
33094;SDS011;19459;53.044;8.910;2024-02-23T10:11:55;7.47;;;1.88;;
33094;SDS011;19459;53.044;8.910;2024-02-23T10:14:22;8.63;;;1.58;;
33094;SDS011;19459;53.044;8.910;2024-02-23T10:16:48;7.75;;;1.98;;
33094;SDS011;19459;53.044;8.910;2024-02-23T10:19:19;5.50;;;1.48;;
33094;SDS011;19459;53.044;8.910;2024-02-23T10:21:45;6.35;;;1.80;;
33094;SDS011;19459;53.044;8.910;2024-02-23T10:24:12;8.23;;;1.85;;
33094;SDS011;19459;53.044;8.910;2024-02-23T10:26:38;10.85;;;2.17;;
33094;SDS011;19459;53.044;8.910;2024-02-23T10:29:04;10.98;;;1.80;;
33094;SDS011;19459;53.044;8.910;2024-02-23T10:31:34;9.32;;;1.95;;
33094;SDS011;19459;53.044;8.910;2024-02-23T10:34:04;9.23;;;3.22;;
33094;SDS011;19459;53.044;8.910;2024-02-23T10:36:36;6.97;;;2.58;;
33094;SDS011;19459;53.044;8.910;2024-02-23T10:39:07;10.40;;;2.00;;
33094;SDS011;19459;53.044;8.910;2024-02-23T10:41:37;9.10;;;2.42;;
33094;SDS011;19459;53.044;8.910;2024-02-23T10:44:08;6.57;;;1.85;;
33094;SDS011;19459;53.044;8.910;2024-02-23T10:46:34;10.98;;;2.33;;
33094;SDS011;19459;53.044;8.910;2024-02-23T10:49:01;6.47;;;1.55;;
33094;SDS011;19459;53.044;8.910;2024-02-23T10:51:26;8.93;;;1.77;;
33094;SDS011;19459;53.044;8.910;2024-02-23T10:53:53;9.10;;;2.17;;
33094;SDS011;19459;53.044;8.910;2024-02-23T10:56:19;8.40;;;1.60;;
33094;SDS011;19459;53.044;8.910;2024-02-23T10:58:47;10.00;;;2.38;;
33094;SDS011;19459;53.044;8.910;2024-02-23T11:01:13;5.07;;;1.80;;
33094;SDS011;19459;53.044;8.910;2024-02-23T11:03:41;7.57;;;1.70;;
33094;SDS011;19459;53.044;8.910;2024-02-23T11:06:13;13.13;;;2.00;;
33094;SDS011;19459;53.044;8.910;2024-02-23T11:08:41;8.73;;;2.10;;
33094;SDS011;19459;53.044;8.910;2024-02-23T11:11:07;9.68;;;2.65;;
33094;SDS011;19459;53.044;8.910;2024-02-23T11:13:35;5.00;;;2.30;;
33094;SDS011;19459;53.044;8.910;2024-02-23T11:16:05;10.25;;;3.83;;
33094;SDS011;19459;53.044;8.910;2024-02-23T11:18:36;8.30;;;1.52;;
33094;SDS011;19459;53.044;8.910;2024-02-23T11:21:04;6.13;;;1.77;;
33094;SDS011;19459;53.044;8.910;2024-02-23T11:23:41;6.22;;;1.45;;
33094;SDS011;19459;53.044;8.910;2024-02-23T11:26:09;8.98;;;1.50;;
33094;SDS011;19459;53.044;8.910;2024-02-23T11:29:10;6.32;;;1.30;;
33094;SDS011;19459;53.044;8.910;2024-02-23T11:31:44;3.63;;;1.23;;
33094;SDS011;19459;53.044;8.910;2024-02-23T11:34:14;6.10;;;1.75;;
33094;SDS011;19459;53.044;8.910;2024-02-23T11:36:50;2.70;;;0.85;;
33094;SDS011;19459;53.044;8.910;2024-02-23T11:39:17;8.70;;;1.50;;
33094;SDS011;19459;53.044;8.910;2024-02-23T11:41:50;6.05;;;1.25;;
33094;SDS011;19459;53.044;8.910;2024-02-23T11:44:16;11.13;;;1.80;;
33094;SDS011;19459;53.044;8.910;2024-02-23T11:46:48;4.63;;;1.80;;
33094;SDS011;19459;53.044;8.910;2024-02-23T11:49:14;5.70;;;1.27;;
33094;SDS011;19459;53.044;8.910;2024-02-23T11:51:41;9.27;;;4.00;;
33094;SDS011;19459;53.044;8.910;2024-02-23T11:54:07;3.97;;;1.48;;
33094;SDS011;19459;53.044;8.910;2024-02-23T11:56:32;8.35;;;2.00;;
33094;SDS011;19459;53.044;8.910;2024-02-23T11:58:58;7.45;;;2.17;;
33094;SDS011;19459;53.044;8.910;2024-02-23T12:01:24;7.78;;;1.63;;
33094;SDS011;19459;53.044;8.910;2024-02-23T12:03:50;4.78;;;2.33;;
33094;SDS011;19459;53.044;8.910;2024-02-23T12:06:16;6.68;;;1.90;;
33094;SDS011;19459;53.044;8.910;2024-02-23T12:08:42;7.57;;;2.05;;
33094;SDS011;19459;53.044;8.910;2024-02-23T12:11:10;4.05;;;2.30;;
33094;SDS011;19459;53.044;8.910;2024-02-23T12:13:39;3.65;;;1.63;;
33094;SDS011;19459;53.044;8.910;2024-02-23T12:16:06;3.50;;;1.75;;
33094;SDS011;19459;53.044;8.910;2024-02-23T12:18:34;4.97;;;2.70;;
33094;SDS011;19459;53.044;8.910;2024-02-23T12:21:00;4.53;;;2.10;;
33094;SDS011;19459;53.044;8.910;2024-02-23T12:23:39;8.18;;;1.38;;
33094;SDS011;19459;53.044;8.910;2024-02-23T12:26:09;5.65;;;1.20;;
33094;SDS011;19459;53.044;8.910;2024-02-23T12:28:38;2.85;;;1.10;;
33094;SDS011;19459;53.044;8.910;2024-02-23T12:31:05;6.00;;;1.73;;
33094;SDS011;19459;53.044;8.910;2024-02-23T12:33:32;7.93;;;1.75;;
33094;SDS011;19459;53.044;8.910;2024-02-23T12:35:59;4.13;;;1.23;;
33094;SDS011;19459;53.044;8.910;2024-02-23T12:38:27;5.13;;;1.40;;
33094;SDS011;19459;53.044;8.910;2024-02-23T12:40:53;10.45;;;2.33;;
33094;SDS011;19459;53.044;8.910;2024-02-23T12:43:20;5.75;;;1.42;;
33094;SDS011;19459;53.044;8.910;2024-02-23T12:45:49;8.32;;;2.00;;
33094;SDS011;19459;53.044;8.910;2024-02-23T12:48:19;5.68;;;1.45;;
33094;SDS011;19459;53.044;8.910;2024-02-23T12:50:46;7.65;;;1.50;;
33094;SDS011;19459;53.044;8.910;2024-02-23T12:56:08;4.65;;;1.95;;
33094;SDS011;19459;53.044;8.910;2024-02-23T12:58:40;5.57;;;2.22;;
33094;SDS011;19459;53.044;8.910;2024-02-23T13:01:07;9.32;;;3.10;;
33094;SDS011;19459;53.044;8.910;2024-02-23T13:03:34;8.95;;;3.15;;
33094;SDS011;19459;53.044;8.910;2024-02-23T13:06:07;4.97;;;1.50;;
33094;SDS011;19459;53.044;8.910;2024-02-23T13:08:33;2.45;;;1.13;;
33094;SDS011;19459;53.044;8.910;2024-02-23T13:10:59;7.47;;;2.13;;
33094;SDS011;19459;53.044;8.910;2024-02-23T13:13:26;9.48;;;1.73;;
33094;SDS011;19459;53.044;8.910;2024-02-23T13:15:52;4.90;;;1.80;;
33094;SDS011;19459;53.044;8.910;2024-02-23T13:18:19;5.38;;;1.30;;
33094;SDS011;19459;53.044;8.910;2024-02-23T13:20:46;8.25;;;1.65;;
33094;SDS011;19459;53.044;8.910;2024-02-23T13:23:11;7.47;;;1.30;;
33094;SDS011;19459;53.044;8.910;2024-02-23T13:25:38;4.55;;;1.40;;
33094;SDS011;19459;53.044;8.910;2024-02-23T13:28:27;3.08;;;1.15;;
33094;SDS011;19459;53.044;8.910;2024-02-23T13:30:53;10.20;;;1.58;;
33094;SDS011;19459;53.044;8.910;2024-02-23T13:33:19;6.07;;;1.15;;
33094;SDS011;19459;53.044;8.910;2024-02-23T13:35:47;2.95;;;1.35;;
33094;SDS011;19459;53.044;8.910;2024-02-23T13:38:13;3.83;;;1.10;;
33094;SDS011;19459;53.044;8.910;2024-02-23T13:40:38;11.05;;;1.73;;
33094;SDS011;19459;53.044;8.910;2024-02-23T13:43:04;6.90;;;2.65;;
33094;SDS011;19459;53.044;8.910;2024-02-23T13:45:30;3.70;;;1.65;;
33094;SDS011;19459;53.044;8.910;2024-02-23T13:47:58;4.57;;;1.52;;
33094;SDS011;19459;53.044;8.910;2024-02-23T13:50:26;2.38;;;1.10;;
33094;SDS011;19459;53.044;8.910;2024-02-23T13:52:52;3.42;;;1.15;;
33094;SDS011;19459;53.044;8.910;2024-02-23T13:55:19;3.33;;;1.02;;
33094;SDS011;19459;53.044;8.910;2024-02-23T13:57:48;4.63;;;1.30;;
33094;SDS011;19459;53.044;8.910;2024-02-23T14:00:15;3.50;;;1.58;;
33094;SDS011;19459;53.044;8.910;2024-02-23T14:02:43;4.13;;;1.17;;
33094;SDS011;19459;53.044;8.910;2024-02-23T14:05:10;7.95;;;1.98;;
33094;SDS011;19459;53.044;8.910;2024-02-23T14:07:35;5.28;;;1.70;;
33094;SDS011;19459;53.044;8.910;2024-02-23T14:10:02;14.30;;;6.10;;
33094;SDS011;19459;53.044;8.910;2024-02-23T14:12:29;3.70;;;1.35;;
33094;SDS011;19459;53.044;8.910;2024-02-23T14:14:54;5.32;;;2.25;;
33094;SDS011;19459;53.044;8.910;2024-02-23T14:17:20;4.50;;;2.15;;
33094;SDS011;19459;53.044;8.910;2024-02-23T14:19:46;2.20;;;1.25;;
33094;SDS011;19459;53.044;8.910;2024-02-23T14:22:12;5.75;;;1.90;;
33094;SDS011;19459;53.044;8.910;2024-02-23T14:24:38;3.42;;;1.20;;
33094;SDS011;19459;53.044;8.910;2024-02-23T14:27:05;5.22;;;1.27;;
33094;SDS011;19459;53.044;8.910;2024-02-23T14:29:31;7.95;;;1.20;;
33094;SDS011;19459;53.044;8.910;2024-02-23T14:31:57;5.30;;;1.48;;
33094;SDS011;19459;53.044;8.910;2024-02-23T14:34:24;3.45;;;1.30;;
33094;SDS011;19459;53.044;8.910;2024-02-23T14:36:50;2.47;;;0.90;;
33094;SDS011;19459;53.044;8.910;2024-02-23T14:39:16;5.35;;;1.42;;
33094;SDS011;19459;53.044;8.910;2024-02-23T14:41:43;9.98;;;1.60;;
33094;SDS011;19459;53.044;8.910;2024-02-23T14:44:09;2.70;;;1.20;;
33094;SDS011;19459;53.044;8.910;2024-02-23T14:46:34;7.07;;;1.63;;